Terminal Aerodrome Forecast
Issued by NWS

Home | Current Version | Previous Version | Text Only | Print | Product List | Glossary On
Versions: 1 2 3 4 5 6 7 8 9 10 11 12 13 14 15
729
FTUS46 KLOX 171739
TAFOXR
TAF
KOXR 171739Z 1718/1818 VRB04KT P6SM FEW120
     FM171830 26011KT P6SM SCT120
     FM172000 27013KT P6SM BKN120
     FM180200 28005KT P6SM BKN100
     FM180900 03004KT P6SM BKN150
     FM181200 VRB03KT 5SM HZ SCT200=

USA.gov is the U.S. government's official web portal to all federal, state and local government web resources and services.